createdAt,value
2023-01-27T00:04:35.529Z,0.22
2023-01-27T00:09:38.274Z,0.18
2023-01-27T00:14:40.992Z,0.14
2023-01-27T00:19:44.765Z,0.08
2023-01-27T00:24:47.672Z,0.10
2023-01-27T00:29:52.936Z,0.17
2023-01-27T00:34:55.673Z,0.17
2023-01-27T00:39:58.433Z,0.20
2023-01-27T00:45:19.996Z,0.25
2023-01-27T00:50:23.614Z,0.27
2023-01-27T00:55:26.432Z,0.34
2023-01-27T01:00:29.203Z,0.38
2023-01-27T01:05:31.944Z,0.39
2023-01-27T01:10:37.623Z,0.39
2023-01-27T01:15:40.944Z,0.37
2023-01-27T01:20:45.436Z,0.28
2023-01-27T01:25:55.445Z,0.26
2023-01-27T01:31:11.868Z,0.21
2023-01-27T01:36:17.825Z,0.20
2023-01-27T01:41:20.662Z,0.22
2023-01-27T01:46:23.625Z,0.20
2023-01-27T01:51:39.636Z,0.23
2023-01-27T01:56:56.056Z,0.22
2023-01-27T02:02:02.601Z,0.23
2023-01-27T02:07:13.303Z,0.21
2023-01-27T02:12:16.049Z,0.18
2023-01-27T02:17:19.017Z,0.18
2023-01-27T02:22:47.513Z,0.20
2023-01-27T02:27:50.283Z,0.23
2023-01-27T02:32:53.049Z,0.22
2023-01-27T02:37:55.785Z,0.17
2023-01-27T02:42:58.648Z,0.13
2023-01-27T02:48:01.457Z,0.07
2023-01-27T02:53:04.409Z,0.02
2023-01-27T02:58:07.212Z,0.03
2023-01-27T03:03:10.386Z,0.01
2023-01-27T03:08:13.291Z,-0.04
2023-01-27T03:13:16.028Z,-0.03
2023-01-27T03:18:19.235Z,0.03
2023-01-27T03:23:21.993Z,0.12
2023-01-27T03:28:24.743Z,0.21
2023-01-27T03:33:28.533Z,0.25
2023-01-27T03:38:50.030Z,0.25
2023-01-27T03:44:11.748Z,0.27
2023-01-27T03:49:14.559Z,0.27
2023-01-27T03:54:17.350Z,0.26
2023-01-27T03:59:20.221Z,0.30
2023-01-27T04:04:42.241Z,0.35
2023-01-27T04:09:45.069Z,0.37
2023-01-27T04:14:49.207Z,0.38
2023-01-27T04:19:51.965Z,0.26
2023-01-27T04:24:54.743Z,0.21
2023-01-27T04:29:57.540Z,0.20
2023-01-27T04:35:00.337Z,0.23
2023-01-27T04:40:03.680Z,0.27
2023-01-27T04:45:07.477Z,0.27
2023-01-27T04:50:11.420Z,0.22
2023-01-27T04:55:14.827Z,0.17
2023-01-27T05:00:19.092Z,0.18
2023-01-27T05:05:22.987Z,0.22
2023-01-27T05:10:26.530Z,0.20
2023-01-27T05:15:30.169Z,0.09
2023-01-27T05:20:33.188Z,-0.00
2023-01-27T05:25:36.005Z,-0.08
2023-01-27T05:30:39.299Z,-0.13
2023-01-27T05:35:42.223Z,-0.22
2023-01-27T05:40:44.989Z,-0.36
2023-01-27T05:45:47.921Z,-0.51
2023-01-27T05:50:56.014Z,-0.58
2023-01-27T05:55:59.005Z,-0.57
2023-01-27T06:01:27.704Z,-0.63
2023-01-27T06:06:32.136Z,-0.67
2023-01-27T06:11:35.186Z,-0.63
2023-01-27T06:16:37.971Z,-0.59
2023-01-27T06:21:40.775Z,-0.55
2023-01-27T06:26:43.575Z,-0.52
2023-01-27T06:31:46.429Z,-0.48
2023-01-27T06:36:49.330Z,-0.46
2023-01-27T06:41:53.411Z,-0.51
2023-01-27T06:46:56.170Z,-0.46
2023-01-27T06:51:59.020Z,-0.35
2023-01-27T06:57:01.826Z,-0.25
2023-01-27T07:02:04.619Z,-0.19
2023-01-27T07:07:07.387Z,-0.11
2023-01-27T07:12:10.190Z,-0.01
2023-01-27T07:17:12.973Z,0.12
2023-01-27T07:22:16.845Z,0.20
2023-01-27T07:27:19.945Z,0.23
2023-01-27T07:32:22.772Z,0.26
2023-01-27T07:37:25.711Z,0.25
2023-01-27T07:42:28.503Z,0.31
2023-01-27T07:47:31.405Z,0.44
2023-01-27T07:52:34.417Z,0.59
2023-01-27T07:57:37.304Z,0.73
2023-01-27T08:02:40.132Z,0.87
2023-01-27T08:07:42.994Z,1.03
2023-01-27T08:12:46.008Z,1.13
2023-01-27T08:17:56.987Z,1.18
2023-01-27T08:22:59.882Z,1.14
2023-01-27T08:28:02.699Z,1.26
2023-01-27T08:33:05.474Z,1.47
2023-01-27T08:38:08.979Z,1.55
2023-01-27T08:43:13.179Z,1.57
2023-01-27T08:48:16.053Z,1.64
2023-01-27T08:53:21.959Z,1.70
2023-01-27T08:58:24.849Z,1.73
2023-01-27T09:03:28.616Z,1.84
2023-01-27T09:08:31.530Z,1.93
2023-01-27T09:13:34.441Z,2.04
2023-01-27T09:18:37.714Z,2.08
2023-01-27T09:23:40.605Z,2.14
2023-01-27T09:28:43.499Z,2.08
2023-01-27T09:33:46.369Z,2.17
2023-01-27T09:38:55.556Z,2.28
2023-01-27T09:44:22.213Z,2.37
2023-01-27T09:49:47.490Z,2.40
2023-01-27T09:55:08.895Z,2.52
2023-01-27T10:00:28.024Z,2.57
2023-01-27T10:05:55.604Z,2.63
2023-01-27T10:11:24.171Z,2.79
2023-01-27T10:16:39.677Z,2.93
2023-01-27T10:22:09.963Z,2.99
2023-01-27T10:27:23.451Z,3.17
2023-01-27T10:32:38.516Z,3.27
2023-01-27T10:38:21.074Z,3.29
2023-01-27T10:43:26.638Z,3.37
2023-01-27T10:48:58.665Z,3.44
2023-01-27T10:54:09.602Z,3.34
2023-01-27T10:59:22.103Z,3.15
2023-01-27T11:04:44.175Z,3.18
2023-01-27T11:10:01.336Z,3.22
2023-01-27T11:15:30.319Z,3.19
2023-01-27T11:20:40.421Z,3.16
2023-01-27T11:26:15.853Z,3.16
2023-01-27T11:32:24.857Z,3.09
2023-01-27T11:37:43.871Z,3.11
2023-01-27T11:42:46.654Z,3.10
2023-01-27T11:47:52.954Z,3.13
2023-01-27T11:53:12.743Z,3.15
2023-01-27T11:58:34.689Z,3.16
2023-01-27T12:04:08.070Z,3.05
2023-01-27T12:09:31.593Z,2.94
2023-01-27T12:14:34.318Z,3.05
2023-01-27T12:19:43.658Z,2.98
2023-01-27T12:25:13.706Z,2.93
2023-01-27T12:30:32.556Z,2.83
2023-01-27T12:35:35.675Z,2.74
2023-01-27T12:40:41.005Z,2.71
2023-01-27T12:45:44.186Z,2.71
2023-01-27T12:50:49.852Z,2.68
2023-01-27T12:56:12.418Z,2.60
2023-01-27T13:01:30.142Z,2.56
2023-01-27T13:06:55.337Z,2.55
2023-01-27T13:12:01.881Z,2.50
2023-01-27T13:17:04.700Z,2.57
2023-01-27T13:22:07.613Z,2.55
2023-01-27T13:27:16.238Z,2.46
2023-01-27T13:32:26.160Z,2.28
2023-01-27T13:37:40.857Z,2.21
2023-01-27T13:42:46.927Z,2.21
2023-01-27T13:48:03.740Z,2.21
2023-01-27T13:53:10.552Z,2.14
2023-01-27T13:58:45.726Z,2.07
2023-01-27T14:04:33.480Z,1.92
2023-01-27T14:10:14.280Z,1.88
2023-01-27T14:15:43.305Z,1.82
2023-01-27T14:20:58.149Z,1.84
2023-01-27T14:26:12.346Z,1.75
2023-01-27T14:31:20.151Z,1.74
2023-01-27T14:36:41.571Z,1.74
2023-01-27T14:42:12.720Z,1.64
2023-01-27T14:47:24.199Z,1.49
2023-01-27T14:52:42.019Z,1.40
2023-01-27T14:58:32.737Z,1.38
2023-01-27T15:04:19.379Z,1.29
2023-01-27T15:09:41.044Z,1.25
2023-01-27T15:15:24.646Z,1.22
2023-01-27T15:21:00.916Z,1.20
2023-01-27T15:26:06.670Z,1.19
2023-01-27T15:31:15.879Z,1.15
2023-01-27T15:36:19.021Z,1.19
2023-01-27T15:41:22.170Z,1.29
2023-01-27T15:46:32.871Z,1.32
2023-01-27T15:51:37.767Z,1.28
2023-01-27T15:56:47.162Z,1.26
2023-01-27T16:01:50.544Z,1.27
2023-01-27T16:07:04.632Z,1.25
2023-01-27T16:12:20.165Z,1.19
2023-01-27T16:17:25.434Z,1.10
2023-01-27T16:22:28.757Z,1.05
2023-01-27T16:27:48.496Z,1.02
2023-01-27T16:33:22.845Z,1.01
2023-01-27T16:38:32.039Z,1.05
2023-01-27T16:43:52.490Z,1.08
2023-01-27T16:48:56.323Z,1.05
2023-01-27T16:53:59.911Z,1.01
2023-01-27T16:59:26.707Z,0.95
2023-01-27T17:04:29.891Z,0.96
2023-01-27T17:09:35.299Z,0.95
2023-01-27T17:14:38.480Z,0.94
2023-01-27T17:19:41.452Z,0.94
2023-01-27T17:24:50.069Z,0.90
2023-01-27T17:30:08.463Z,0.86
2023-01-27T17:35:33.120Z,0.85
2023-01-27T17:40:39.205Z,0.90
2023-01-27T17:45:43.153Z,0.84
2023-01-27T17:50:45.929Z,0.80
2023-01-27T17:55:48.655Z,0.76
2023-01-27T18:00:51.539Z,0.77
2023-01-27T18:05:54.516Z,0.79
2023-01-27T18:11:12.297Z,0.74
2023-01-27T18:16:18.138Z,0.70
2023-01-27T18:21:25.953Z,0.66
2023-01-27T18:26:39.565Z,0.67
2023-01-27T18:31:57.126Z,0.60
2023-01-27T18:37:20.750Z,0.57
2023-01-27T18:42:28.525Z,0.61
2023-01-27T18:47:34.689Z,0.62
2023-01-27T18:52:38.425Z,0.60
2023-01-27T18:57:41.280Z,0.60
2023-01-27T19:02:48.223Z,0.61
2023-01-27T19:07:51.197Z,0.62
2023-01-27T19:12:59.015Z,0.62
2023-01-27T19:18:26.321Z,0.51
2023-01-27T19:23:29.470Z,0.48
2023-01-27T19:28:35.488Z,0.52
2023-01-27T19:33:38.917Z,0.53
2023-01-27T19:38:41.816Z,0.54
2023-01-27T19:43:47.281Z,0.55
2023-01-27T19:48:50.267Z,0.50
2023-01-27T19:53:53.062Z,0.49
2023-01-27T19:58:56.822Z,0.43
2023-01-27T20:03:59.609Z,0.43
2023-01-27T20:09:03.570Z,0.41
2023-01-27T20:14:15.361Z,0.40
2023-01-27T20:19:18.336Z,0.44
2023-01-27T20:24:21.117Z,0.49
2023-01-27T20:29:24.024Z,0.50
2023-01-27T20:34:26.780Z,0.51
2023-01-27T20:39:32.044Z,0.49
2023-01-27T20:44:34.799Z,0.54
2023-01-27T20:49:37.566Z,0.59
2023-01-27T20:54:40.328Z,0.64
2023-01-27T20:59:43.717Z,0.64
2023-01-27T21:04:46.567Z,0.61
2023-01-27T21:09:50.783Z,0.62
2023-01-27T21:14:53.604Z,0.62
2023-01-27T21:19:56.359Z,0.61
2023-01-27T21:24:59.142Z,0.60
2023-01-27T21:30:01.909Z,0.54
2023-01-27T21:35:05.255Z,0.56
2023-01-27T21:40:09.315Z,0.58
2023-01-27T21:45:13.279Z,0.58
2023-01-27T21:50:17.447Z,0.59
2023-01-27T21:55:23.122Z,0.64
2023-01-27T22:00:27.838Z,0.65
2023-01-27T22:05:32.403Z,0.60
2023-01-27T22:10:36.245Z,0.63
2023-01-27T22:15:39.034Z,0.66
2023-01-27T22:20:41.859Z,0.70
2023-01-27T22:25:52.405Z,0.66
2023-01-27T22:30:55.302Z,0.55
2023-01-27T22:36:00.723Z,0.50
2023-01-27T22:41:03.590Z,0.49
2023-01-27T22:46:06.399Z,0.51
2023-01-27T22:51:09.220Z,0.50
2023-01-27T22:56:12.054Z,0.51
2023-01-27T23:01:14.870Z,0.53
2023-01-27T23:06:17.667Z,0.50
2023-01-27T23:11:20.545Z,0.53
2023-01-27T23:16:23.712Z,0.54
2023-01-27T23:21:26.764Z,0.52
2023-01-27T23:26:29.507Z,0.46
2023-01-27T23:31:33.428Z,0.42
2023-01-27T23:36:37.761Z,0.34
2023-01-27T23:41:40.646Z,0.29
2023-01-27T23:46:45.817Z,0.30
2023-01-27T23:51:48.551Z,0.27
2023-01-27T23:58:29.709Z,0.28
